sensor_id;sensor_type;location;lat;lon;timestamp;P1;durP1;ratioP1;P2;durP2;ratioP2
52300;SDS011;38528;53.214;6.562;2022-07-22T00:00:21;13.20;;;4.03;;
52300;SDS011;38528;53.214;6.562;2022-07-22T00:02:46;16.27;;;4.32;;
52300;SDS011;38528;53.214;6.562;2022-07-22T00:05:12;13.82;;;4.03;;
52300;SDS011;38528;53.214;6.562;2022-07-22T00:07:38;9.02;;;3.72;;
52300;SDS011;38528;53.214;6.562;2022-07-22T00:10:05;16.17;;;4.80;;
52300;SDS011;38528;53.214;6.562;2022-07-22T00:12:32;15.88;;;4.03;;
52300;SDS011;38528;53.214;6.562;2022-07-22T00:14:58;13.02;;;3.70;;
52300;SDS011;38528;53.214;6.562;2022-07-22T00:17:24;14.77;;;4.13;;
52300;SDS011;38528;53.214;6.562;2022-07-22T00:19:50;10.98;;;3.58;;
52300;SDS011;38528;53.214;6.562;2022-07-22T00:22:15;13.35;;;3.92;;
52300;SDS011;38528;53.214;6.562;2022-07-22T00:24:41;12.50;;;3.47;;
52300;SDS011;38528;53.214;6.562;2022-07-22T00:27:06;8.60;;;3.15;;
52300;SDS011;38528;53.214;6.562;2022-07-22T00:29:32;10.68;;;3.40;;
52300;SDS011;38528;53.214;6.562;2022-07-22T00:31:58;9.68;;;3.10;;
52300;SDS011;38528;53.214;6.562;2022-07-22T00:34:23;13.23;;;3.33;;
52300;SDS011;38528;53.214;6.562;2022-07-22T00:36:49;9.57;;;2.70;;
52300;SDS011;38528;53.214;6.562;2022-07-22T00:39:14;10.52;;;3.17;;
52300;SDS011;38528;53.214;6.562;2022-07-22T00:41:40;7.22;;;2.53;;
52300;SDS011;38528;53.214;6.562;2022-07-22T00:44:07;12.82;;;2.65;;
52300;SDS011;38528;53.214;6.562;2022-07-22T00:46:34;12.93;;;3.05;;
52300;SDS011;38528;53.214;6.562;2022-07-22T00:49:01;10.15;;;2.95;;
52300;SDS011;38528;53.214;6.562;2022-07-22T00:51:29;7.50;;;3.08;;
52300;SDS011;38528;53.214;6.562;2022-07-22T00:53:55;9.43;;;2.75;;
52300;SDS011;38528;53.214;6.562;2022-07-22T00:56:22;12.30;;;2.78;;
52300;SDS011;38528;53.214;6.562;2022-07-22T00:58:49;9.65;;;2.88;;
52300;SDS011;38528;53.214;6.562;2022-07-22T01:01:17;9.98;;;2.75;;
52300;SDS011;38528;53.214;6.562;2022-07-22T01:03:43;7.22;;;2.45;;
52300;SDS011;38528;53.214;6.562;2022-07-22T01:06:09;8.70;;;2.38;;
52300;SDS011;38528;53.214;6.562;2022-07-22T01:08:35;9.80;;;2.70;;
52300;SDS011;38528;53.214;6.562;2022-07-22T01:11:06;8.00;;;2.67;;
52300;SDS011;38528;53.214;6.562;2022-07-22T01:13:42;8.57;;;2.70;;
52300;SDS011;38528;53.214;6.562;2022-07-22T01:16:09;11.02;;;2.70;;
52300;SDS011;38528;53.214;6.562;2022-07-22T01:18:36;8.60;;;2.42;;
52300;SDS011;38528;53.214;6.562;2022-07-22T01:21:03;9.98;;;2.55;;
52300;SDS011;38528;53.214;6.562;2022-07-22T01:23:29;13.73;;;2.70;;
52300;SDS011;38528;53.214;6.562;2022-07-22T01:25:55;7.07;;;2.65;;
52300;SDS011;38528;53.214;6.562;2022-07-22T01:28:22;12.48;;;2.80;;
52300;SDS011;38528;53.214;6.562;2022-07-22T01:30:48;11.25;;;2.50;;
52300;SDS011;38528;53.214;6.562;2022-07-22T01:33:15;8.57;;;2.72;;
52300;SDS011;38528;53.214;6.562;2022-07-22T01:35:44;7.45;;;2.15;;
52300;SDS011;38528;53.214;6.562;2022-07-22T01:38:11;6.88;;;2.40;;
52300;SDS011;38528;53.214;6.562;2022-07-22T01:40:37;10.98;;;2.50;;
52300;SDS011;38528;53.214;6.562;2022-07-22T01:43:03;12.35;;;2.85;;
52300;SDS011;38528;53.214;6.562;2022-07-22T01:45:28;8.38;;;2.75;;
52300;SDS011;38528;53.214;6.562;2022-07-22T01:47:54;7.72;;;2.50;;
52300;SDS011;38528;53.214;6.562;2022-07-22T01:50:19;7.60;;;2.00;;
52300;SDS011;38528;53.214;6.562;2022-07-22T01:52:45;6.10;;;2.17;;
52300;SDS011;38528;53.214;6.562;2022-07-22T01:55:11;8.95;;;2.38;;
52300;SDS011;38528;53.214;6.562;2022-07-22T01:57:37;6.90;;;2.10;;
52300;SDS011;38528;53.214;6.562;2022-07-22T02:00:04;8.43;;;2.67;;
52300;SDS011;38528;53.214;6.562;2022-07-22T02:02:32;7.95;;;2.30;;
52300;SDS011;38528;53.214;6.562;2022-07-22T02:04:57;8.20;;;2.10;;
52300;SDS011;38528;53.214;6.562;2022-07-22T02:07:23;8.15;;;2.00;;
52300;SDS011;38528;53.214;6.562;2022-07-22T02:09:49;5.32;;;1.92;;
52300;SDS011;38528;53.214;6.562;2022-07-22T02:12:15;5.35;;;1.90;;
52300;SDS011;38528;53.214;6.562;2022-07-22T02:14:40;9.52;;;2.30;;
52300;SDS011;38528;53.214;6.562;2022-07-22T02:17:07;9.15;;;2.35;;
52300;SDS011;38528;53.214;6.562;2022-07-22T02:19:33;8.07;;;2.03;;
52300;SDS011;38528;53.214;6.562;2022-07-22T02:21:58;7.40;;;2.20;;
52300;SDS011;38528;53.214;6.562;2022-07-22T02:24:24;9.73;;;2.10;;
52300;SDS011;38528;53.214;6.562;2022-07-22T02:26:50;7.45;;;2.40;;
52300;SDS011;38528;53.214;6.562;2022-07-22T02:29:15;8.23;;;2.40;;
52300;SDS011;38528;53.214;6.562;2022-07-22T02:31:41;7.53;;;2.35;;
52300;SDS011;38528;53.214;6.562;2022-07-22T02:34:07;10.40;;;2.25;;
52300;SDS011;38528;53.214;6.562;2022-07-22T02:36:33;8.93;;;2.65;;
52300;SDS011;38528;53.214;6.562;2022-07-22T02:38:58;10.05;;;2.30;;
52300;SDS011;38528;53.214;6.562;2022-07-22T02:41:24;9.85;;;2.30;;
52300;SDS011;38528;53.214;6.562;2022-07-22T02:43:49;8.93;;;2.22;;
52300;SDS011;38528;53.214;6.562;2022-07-22T02:46:18;7.90;;;2.13;;
52300;SDS011;38528;53.214;6.562;2022-07-22T02:48:45;6.63;;;2.10;;
52300;SDS011;38528;53.214;6.562;2022-07-22T02:51:11;9.32;;;2.25;;
52300;SDS011;38528;53.214;6.562;2022-07-22T02:53:36;7.78;;;2.17;;
52300;SDS011;38528;53.214;6.562;2022-07-22T02:56:02;8.68;;;2.08;;
52300;SDS011;38528;53.214;6.562;2022-07-22T02:58:28;10.45;;;2.28;;
52300;SDS011;38528;53.214;6.562;2022-07-22T03:00:53;8.40;;;2.10;;
52300;SDS011;38528;53.214;6.562;2022-07-22T03:03:19;8.85;;;2.22;;
52300;SDS011;38528;53.214;6.562;2022-07-22T03:05:45;10.95;;;2.10;;
52300;SDS011;38528;53.214;6.562;2022-07-22T03:08:10;7.38;;;2.03;;
52300;SDS011;38528;53.214;6.562;2022-07-22T03:10:36;11.88;;;2.17;;
52300;SDS011;38528;53.214;6.562;2022-07-22T03:13:02;6.15;;;1.80;;
52300;SDS011;38528;53.214;6.562;2022-07-22T03:15:28;10.70;;;1.98;;
52300;SDS011;38528;53.214;6.562;2022-07-22T03:17:53;6.32;;;2.15;;
52300;SDS011;38528;53.214;6.562;2022-07-22T03:20:19;6.47;;;2.05;;
52300;SDS011;38528;53.214;6.562;2022-07-22T03:22:45;5.38;;;2.17;;
52300;SDS011;38528;53.214;6.562;2022-07-22T03:25:10;9.73;;;2.15;;
52300;SDS011;38528;53.214;6.562;2022-07-22T03:27:36;7.28;;;2.30;;
52300;SDS011;38528;53.214;6.562;2022-07-22T03:30:03;5.85;;;1.90;;
52300;SDS011;38528;53.214;6.562;2022-07-22T03:32:29;6.78;;;1.92;;
52300;SDS011;38528;53.214;6.562;2022-07-22T03:34:55;8.43;;;2.20;;
52300;SDS011;38528;53.214;6.562;2022-07-22T03:37:21;6.10;;;2.50;;
52300;SDS011;38528;53.214;6.562;2022-07-22T03:39:47;6.25;;;1.77;;
52300;SDS011;38528;53.214;6.562;2022-07-22T03:42:12;7.20;;;2.15;;
52300;SDS011;38528;53.214;6.562;2022-07-22T03:44:38;7.47;;;1.95;;
52300;SDS011;38528;53.214;6.562;2022-07-22T03:47:04;8.95;;;1.90;;
52300;SDS011;38528;53.214;6.562;2022-07-22T03:49:30;7.80;;;2.38;;
52300;SDS011;38528;53.214;6.562;2022-07-22T03:51:56;6.18;;;2.10;;
52300;SDS011;38528;53.214;6.562;2022-07-22T03:54:22;6.82;;;2.45;;
52300;SDS011;38528;53.214;6.562;2022-07-22T03:56:48;8.90;;;2.30;;
52300;SDS011;38528;53.214;6.562;2022-07-22T03:59:14;10.85;;;2.50;;
52300;SDS011;38528;53.214;6.562;2022-07-22T04:01:40;9.32;;;2.13;;
52300;SDS011;38528;53.214;6.562;2022-07-22T04:04:06;7.90;;;2.10;;
52300;SDS011;38528;53.214;6.562;2022-07-22T04:06:31;6.75;;;2.25;;
52300;SDS011;38528;53.214;6.562;2022-07-22T04:08:57;8.73;;;2.47;;
52300;SDS011;38528;53.214;6.562;2022-07-22T04:11:23;7.72;;;2.00;;
52300;SDS011;38528;53.214;6.562;2022-07-22T04:13:48;6.75;;;2.35;;
52300;SDS011;38528;53.214;6.562;2022-07-22T04:16:14;11.57;;;2.40;;
52300;SDS011;38528;53.214;6.562;2022-07-22T04:18:40;7.97;;;2.00;;
52300;SDS011;38528;53.214;6.562;2022-07-22T04:21:05;8.77;;;2.10;;
52300;SDS011;38528;53.214;6.562;2022-07-22T04:23:31;8.57;;;2.08;;
52300;SDS011;38528;53.214;6.562;2022-07-22T04:25:57;10.77;;;2.28;;
52300;SDS011;38528;53.214;6.562;2022-07-22T04:28:22;7.93;;;2.10;;
52300;SDS011;38528;53.214;6.562;2022-07-22T04:30:48;6.93;;;2.08;;
52300;SDS011;38528;53.214;6.562;2022-07-22T04:33:13;6.38;;;2.17;;
52300;SDS011;38528;53.214;6.562;2022-07-22T04:35:39;10.68;;;2.08;;
52300;SDS011;38528;53.214;6.562;2022-07-22T04:38:05;10.20;;;2.35;;
52300;SDS011;38528;53.214;6.562;2022-07-22T04:40:30;9.90;;;2.38;;
52300;SDS011;38528;53.214;6.562;2022-07-22T04:42:56;10.75;;;2.50;;
52300;SDS011;38528;53.214;6.562;2022-07-22T04:45:22;6.85;;;2.22;;
52300;SDS011;38528;53.214;6.562;2022-07-22T04:47:47;8.63;;;2.28;;
52300;SDS011;38528;53.214;6.562;2022-07-22T04:50:13;11.23;;;2.10;;
52300;SDS011;38528;53.214;6.562;2022-07-22T04:52:38;5.85;;;2.00;;
52300;SDS011;38528;53.214;6.562;2022-07-22T04:55:04;5.50;;;2.10;;
52300;SDS011;38528;53.214;6.562;2022-07-22T04:57:31;7.47;;;2.05;;
52300;SDS011;38528;53.214;6.562;2022-07-22T04:59:56;8.32;;;2.38;;
52300;SDS011;38528;53.214;6.562;2022-07-22T05:02:22;8.50;;;2.05;;
52300;SDS011;38528;53.214;6.562;2022-07-22T05:04:47;7.93;;;2.00;;
52300;SDS011;38528;53.214;6.562;2022-07-22T05:07:13;5.65;;;2.00;;
52300;SDS011;38528;53.214;6.562;2022-07-22T05:09:39;7.20;;;2.35;;
52300;SDS011;38528;53.214;6.562;2022-07-22T05:12:04;7.55;;;1.80;;
52300;SDS011;38528;53.214;6.562;2022-07-22T05:14:30;8.45;;;1.80;;
52300;SDS011;38528;53.214;6.562;2022-07-22T05:16:56;5.28;;;1.73;;
52300;SDS011;38528;53.214;6.562;2022-07-22T05:19:21;6.05;;;1.90;;
52300;SDS011;38528;53.214;6.562;2022-07-22T05:21:47;6.50;;;2.00;;
52300;SDS011;38528;53.214;6.562;2022-07-22T05:24:13;7.32;;;2.47;;
52300;SDS011;38528;53.214;6.562;2022-07-22T05:26:39;6.38;;;2.10;;
52300;SDS011;38528;53.214;6.562;2022-07-22T05:29:04;4.72;;;1.95;;
52300;SDS011;38528;53.214;6.562;2022-07-22T05:31:30;6.82;;;2.05;;
52300;SDS011;38528;53.214;6.562;2022-07-22T05:33:56;8.68;;;2.03;;
52300;SDS011;38528;53.214;6.562;2022-07-22T05:36:22;6.28;;;1.88;;
52300;SDS011;38528;53.214;6.562;2022-07-22T05:38:48;5.38;;;1.75;;
52300;SDS011;38528;53.214;6.562;2022-07-22T05:41:13;9.95;;;2.28;;
52300;SDS011;38528;53.214;6.562;2022-07-22T05:43:39;6.43;;;1.95;;
52300;SDS011;38528;53.214;6.562;2022-07-22T05:46:05;9.68;;;2.05;;
52300;SDS011;38528;53.214;6.562;2022-07-22T05:48:32;5.05;;;2.10;;
52300;SDS011;38528;53.214;6.562;2022-07-22T05:50:58;5.95;;;1.60;;
52300;SDS011;38528;53.214;6.562;2022-07-22T05:53:23;10.13;;;1.98;;
52300;SDS011;38528;53.214;6.562;2022-07-22T05:55:49;7.22;;;1.90;;
52300;SDS011;38528;53.214;6.562;2022-07-22T05:58:15;5.25;;;2.00;;
52300;SDS011;38528;53.214;6.562;2022-07-22T06:00:40;5.88;;;1.77;;
52300;SDS011;38528;53.214;6.562;2022-07-22T06:03:07;6.32;;;1.85;;
52300;SDS011;38528;53.214;6.562;2022-07-22T06:05:32;6.30;;;1.80;;
52300;SDS011;38528;53.214;6.562;2022-07-22T06:08:00;5.90;;;1.80;;
52300;SDS011;38528;53.214;6.562;2022-07-22T06:10:26;5.78;;;2.00;;
52300;SDS011;38528;53.214;6.562;2022-07-22T06:12:52;5.18;;;1.80;;
52300;SDS011;38528;53.214;6.562;2022-07-22T06:15:17;8.35;;;2.00;;
52300;SDS011;38528;53.214;6.562;2022-07-22T06:17:43;8.40;;;2.00;;
52300;SDS011;38528;53.214;6.562;2022-07-22T06:20:08;8.10;;;2.13;;
52300;SDS011;38528;53.214;6.562;2022-07-22T06:22:34;5.18;;;1.60;;
52300;SDS011;38528;53.214;6.562;2022-07-22T06:25:00;5.53;;;2.03;;
52300;SDS011;38528;53.214;6.562;2022-07-22T06:27:25;10.20;;;2.30;;
52300;SDS011;38528;53.214;6.562;2022-07-22T06:29:51;13.30;;;2.42;;
52300;SDS011;38528;53.214;6.562;2022-07-22T06:32:16;7.13;;;1.95;;
52300;SDS011;38528;53.214;6.562;2022-07-22T06:34:42;11.50;;;2.25;;
52300;SDS011;38528;53.214;6.562;2022-07-22T06:37:08;7.25;;;2.17;;
52300;SDS011;38528;53.214;6.562;2022-07-22T06:39:33;6.88;;;1.98;;
52300;SDS011;38528;53.214;6.562;2022-07-22T06:41:59;6.80;;;1.92;;
52300;SDS011;38528;53.214;6.562;2022-07-22T06:44:25;10.05;;;2.17;;
52300;SDS011;38528;53.214;6.562;2022-07-22T06:46:50;9.05;;;2.13;;
52300;SDS011;38528;53.214;6.562;2022-07-22T06:49:16;6.97;;;1.75;;
52300;SDS011;38528;53.214;6.562;2022-07-22T06:51:42;6.22;;;1.90;;
52300;SDS011;38528;53.214;6.562;2022-07-22T06:54:07;7.35;;;2.05;;
52300;SDS011;38528;53.214;6.562;2022-07-22T06:56:33;7.68;;;1.90;;
52300;SDS011;38528;53.214;6.562;2022-07-22T06:58:59;6.05;;;1.83;;
52300;SDS011;38528;53.214;6.562;2022-07-22T07:01:24;6.13;;;1.80;;
52300;SDS011;38528;53.214;6.562;2022-07-22T07:03:50;5.75;;;1.80;;
52300;SDS011;38528;53.214;6.562;2022-07-22T07:06:16;5.63;;;1.67;;
52300;SDS011;38528;53.214;6.562;2022-07-22T07:08:42;6.68;;;1.80;;
52300;SDS011;38528;53.214;6.562;2022-07-22T07:11:07;4.95;;;1.67;;
52300;SDS011;38528;53.214;6.562;2022-07-22T07:13:33;8.10;;;1.60;;
52300;SDS011;38528;53.214;6.562;2022-07-22T07:15:59;8.38;;;1.60;;
52300;SDS011;38528;53.214;6.562;2022-07-22T07:18:25;5.03;;;1.83;;
52300;SDS011;38528;53.214;6.562;2022-07-22T07:20:50;8.02;;;1.90;;
52300;SDS011;38528;53.214;6.562;2022-07-22T07:23:16;5.72;;;1.50;;
52300;SDS011;38528;53.214;6.562;2022-07-22T07:25:42;8.23;;;2.08;;
52300;SDS011;38528;53.214;6.562;2022-07-22T07:28:08;6.20;;;1.50;;
52300;SDS011;38528;53.214;6.562;2022-07-22T07:30:33;5.18;;;1.70;;
52300;SDS011;38528;53.214;6.562;2022-07-22T07:32:59;4.53;;;1.67;;
52300;SDS011;38528;53.214;6.562;2022-07-22T07:35:26;5.00;;;1.48;;
52300;SDS011;38528;53.214;6.562;2022-07-22T07:37:52;7.57;;;1.73;;
52300;SDS011;38528;53.214;6.562;2022-07-22T07:40:18;5.38;;;1.95;;
52300;SDS011;38528;53.214;6.562;2022-07-22T07:42:44;5.45;;;1.83;;
52300;SDS011;38528;53.214;6.562;2022-07-22T07:45:10;5.22;;;1.52;;
52300;SDS011;38528;53.214;6.562;2022-07-22T07:47:36;3.28;;;1.40;;
52300;SDS011;38528;53.214;6.562;2022-07-22T07:50:03;5.38;;;1.58;;
52300;SDS011;38528;53.214;6.562;2022-07-22T07:52:30;3.60;;;1.60;;
52300;SDS011;38528;53.214;6.562;2022-07-22T07:54:55;5.18;;;1.60;;
52300;SDS011;38528;53.214;6.562;2022-07-22T07:57:21;5.00;;;1.55;;
52300;SDS011;38528;53.214;6.562;2022-07-22T07:59:47;10.07;;;2.05;;
52300;SDS011;38528;53.214;6.562;2022-07-22T08:02:13;6.55;;;1.45;;
52300;SDS011;38528;53.214;6.562;2022-07-22T08:04:38;3.70;;;1.50;;
52300;SDS011;38528;53.214;6.562;2022-07-22T08:07:05;5.95;;;1.70;;
52300;SDS011;38528;53.214;6.562;2022-07-22T08:09:31;6.30;;;1.60;;
52300;SDS011;38528;53.214;6.562;2022-07-22T08:11:58;5.35;;;1.50;;
52300;SDS011;38528;53.214;6.562;2022-07-22T08:14:23;5.95;;;1.40;;
52300;SDS011;38528;53.214;6.562;2022-07-22T08:16:50;5.10;;;1.50;;
52300;SDS011;38528;53.214;6.562;2022-07-22T08:19:16;4.40;;;1.52;;
52300;SDS011;38528;53.214;6.562;2022-07-22T08:21:41;5.55;;;1.70;;
52300;SDS011;38528;53.214;6.562;2022-07-22T08:24:10;8.50;;;1.60;;
52300;SDS011;38528;53.214;6.562;2022-07-22T08:26:36;5.88;;;1.70;;
52300;SDS011;38528;53.214;6.562;2022-07-22T08:29:02;6.47;;;1.85;;
52300;SDS011;38528;53.214;6.562;2022-07-22T08:31:30;6.13;;;1.63;;
52300;SDS011;38528;53.214;6.562;2022-07-22T08:33:59;6.88;;;1.83;;
52300;SDS011;38528;53.214;6.562;2022-07-22T08:36:26;8.57;;;1.92;;
52300;SDS011;38528;53.214;6.562;2022-07-22T08:38:51;11.63;;;2.30;;
52300;SDS011;38528;53.214;6.562;2022-07-22T08:41:18;4.65;;;1.80;;
52300;SDS011;38528;53.214;6.562;2022-07-22T08:43:45;6.38;;;1.65;;
52300;SDS011;38528;53.214;6.562;2022-07-22T08:46:12;8.65;;;2.13;;
52300;SDS011;38528;53.214;6.562;2022-07-22T08:48:38;6.55;;;1.60;;
52300;SDS011;38528;53.214;6.562;2022-07-22T08:51:05;4.72;;;1.73;;
52300;SDS011;38528;53.214;6.562;2022-07-22T08:53:31;5.90;;;1.90;;
52300;SDS011;38528;53.214;6.562;2022-07-22T08:55:57;7.53;;;1.67;;
52300;SDS011;38528;53.214;6.562;2022-07-22T08:58:24;6.45;;;1.80;;
52300;SDS011;38528;53.214;6.562;2022-07-22T09:03:56;7.32;;;1.67;;
52300;SDS011;38528;53.214;6.562;2022-07-22T09:06:23;7.22;;;1.70;;
52300;SDS011;38528;53.214;6.562;2022-07-22T09:11:21;10.80;;;1.70;;
52300;SDS011;38528;53.214;6.562;2022-07-22T09:13:48;5.90;;;1.75;;
52300;SDS011;38528;53.214;6.562;2022-07-22T09:16:15;6.97;;;1.77;;
52300;SDS011;38528;53.214;6.562;2022-07-22T09:18:44;5.00;;;1.48;;
52300;SDS011;38528;53.214;6.562;2022-07-22T09:21:12;7.53;;;1.60;;
52300;SDS011;38528;53.214;6.562;2022-07-22T09:23:39;10.00;;;2.10;;
52300;SDS011;38528;53.214;6.562;2022-07-22T09:26:06;8.45;;;1.80;;
52300;SDS011;38528;53.214;6.562;2022-07-22T09:28:32;4.25;;;1.60;;
52300;SDS011;38528;53.214;6.562;2022-07-22T09:30:58;5.22;;;1.50;;
52300;SDS011;38528;53.214;6.562;2022-07-22T09:33:24;5.55;;;1.52;;
52300;SDS011;38528;53.214;6.562;2022-07-22T09:35:51;6.10;;;1.70;;
52300;SDS011;38528;53.214;6.562;2022-07-22T09:38:18;6.30;;;1.70;;
52300;SDS011;38528;53.214;6.562;2022-07-22T09:40:53;7.22;;;1.60;;
52300;SDS011;38528;53.214;6.562;2022-07-22T09:43:19;7.35;;;2.05;;
52300;SDS011;38528;53.214;6.562;2022-07-22T09:48:19;5.65;;;1.88;;
52300;SDS011;38528;53.214;6.562;2022-07-22T09:50:46;7.57;;;1.80;;
52300;SDS011;38528;53.214;6.562;2022-07-22T09:53:13;5.35;;;1.77;;
52300;SDS011;38528;53.214;6.562;2022-07-22T09:55:40;7.53;;;1.70;;
52300;SDS011;38528;53.214;6.562;2022-07-22T09:58:06;4.63;;;1.60;;
52300;SDS011;38528;53.214;6.562;2022-07-22T10:00:37;5.25;;;1.73;;
52300;SDS011;38528;53.214;6.562;2022-07-22T10:03:07;3.95;;;1.40;;
52300;SDS011;38528;53.214;6.562;2022-07-22T10:05:39;8.10;;;1.83;;
52300;SDS011;38528;53.214;6.562;2022-07-22T10:08:06;7.10;;;1.40;;
52300;SDS011;38528;53.214;6.562;2022-07-22T10:10:33;4.95;;;1.20;;
52300;SDS011;38528;53.214;6.562;2022-07-22T10:13:01;6.05;;;1.50;;
52300;SDS011;38528;53.214;6.562;2022-07-22T10:15:28;5.93;;;1.55;;
52300;SDS011;38528;53.214;6.562;2022-07-22T10:17:56;3.40;;;1.20;;
52300;SDS011;38528;53.214;6.562;2022-07-22T10:20:25;5.63;;;1.38;;
52300;SDS011;38528;53.214;6.562;2022-07-22T10:22:56;2.70;;;1.10;;
52300;SDS011;38528;53.214;6.562;2022-07-22T10:25:24;4.72;;;1.60;;
52300;SDS011;38528;53.214;6.562;2022-07-22T10:27:59;4.63;;;1.52;;
52300;SDS011;38528;53.214;6.562;2022-07-22T10:36:28;2.83;;;1.33;;
52300;SDS011;38528;53.214;6.562;2022-07-22T10:38:24;3.00;;;1.20;;
52300;SDS011;38528;53.214;6.562;2022-07-22T10:41:01;2.40;;;1.00;;
52300;SDS011;38528;53.214;6.562;2022-07-22T10:46:09;3.67;;;1.20;;
52300;SDS011;38528;53.214;6.562;2022-07-22T10:51:10;6.10;;;1.50;;
52300;SDS011;38528;53.214;6.562;2022-07-22T10:56:14;3.45;;;1.10;;
52300;SDS011;38528;53.214;6.562;2022-07-22T10:58:42;2.30;;;1.10;;
52300;SDS011;38528;53.214;6.562;2022-07-22T11:01:11;3.47;;;1.30;;
52300;SDS011;38528;53.214;6.562;2022-07-22T11:03:39;3.38;;;1.23;;
52300;SDS011;38528;53.214;6.562;2022-07-22T11:06:13;2.45;;;1.13;;
52300;SDS011;38528;53.214;6.562;2022-07-22T11:08:52;4.05;;;1.10;;
52300;SDS011;38528;53.214;6.562;2022-07-22T11:14:13;5.45;;;1.30;;
52300;SDS011;38528;53.214;6.562;2022-07-22T11:16:40;4.55;;;1.30;;
52300;SDS011;38528;53.214;6.562;2022-07-22T11:19:06;3.97;;;1.20;;
52300;SDS011;38528;53.214;6.562;2022-07-22T11:21:33;5.25;;;1.52;;
52300;SDS011;38528;53.214;6.562;2022-07-22T11:23:59;2.70;;;1.02;;
52300;SDS011;38528;53.214;6.562;2022-07-22T11:26:37;4.57;;;1.35;;
52300;SDS011;38528;53.214;6.562;2022-07-22T11:29:09;3.88;;;1.20;;
52300;SDS011;38528;53.214;6.562;2022-07-22T11:31:40;5.55;;;1.38;;
52300;SDS011;38528;53.214;6.562;2022-07-22T11:34:06;5.45;;;1.30;;
52300;SDS011;38528;53.214;6.562;2022-07-22T11:36:35;3.22;;;1.10;;
52300;SDS011;38528;53.214;6.562;2022-07-22T11:39:03;2.67;;;1.17;;
52300;SDS011;38528;53.214;6.562;2022-07-22T11:41:29;2.75;;;0.95;;
52300;SDS011;38528;53.214;6.562;2022-07-22T11:43:56;6.47;;;1.10;;
52300;SDS011;38528;53.214;6.562;2022-07-22T11:46:23;3.35;;;1.13;;
52300;SDS011;38528;53.214;6.562;2022-07-22T11:48:50;4.28;;;1.10;;
52300;SDS011;38528;53.214;6.562;2022-07-22T11:51:23;2.20;;;1.00;;
52300;SDS011;38528;53.214;6.562;2022-07-22T11:53:56;2.47;;;1.17;;
52300;SDS011;38528;53.214;6.562;2022-07-22T11:56:23;8.30;;;1.52;;
52300;SDS011;38528;53.214;6.562;2022-07-22T11:58:49;3.85;;;1.13;;
52300;SDS011;38528;53.214;6.562;2022-07-22T12:01:19;3.05;;;1.00;;
52300;SDS011;38528;53.214;6.562;2022-07-22T12:03:49;2.50;;;1.10;;
52300;SDS011;38528;53.214;6.562;2022-07-22T12:06:17;2.58;;;1.10;;
52300;SDS011;38528;53.214;6.562;2022-07-22T12:08:46;1.73;;;1.00;;
52300;SDS011;38528;53.214;6.562;2022-07-22T12:11:20;2.60;;;1.02;;
52300;SDS011;38528;53.214;6.562;2022-07-22T12:13:48;2.10;;;0.90;;
52300;SDS011;38528;53.214;6.562;2022-07-22T12:16:28;3.15;;;0.90;;
52300;SDS011;38528;53.214;6.562;2022-07-22T12:19:02;2.58;;;1.00;;
52300;SDS011;38528;53.214;6.562;2022-07-22T12:21:31;1.77;;;0.82;;
52300;SDS011;38528;53.214;6.562;2022-07-22T12:29:15;3.60;;;1.05;;
52300;SDS011;38528;53.214;6.562;2022-07-22T12:31:44;2.15;;;1.10;;
52300;SDS011;38528;53.214;6.562;2022-07-22T12:34:16;3.40;;;1.00;;
52300;SDS011;38528;53.214;6.562;2022-07-22T12:36:43;2.25;;;0.90;;
52300;SDS011;38528;53.214;6.562;2022-07-22T12:39:12;3.25;;;1.00;;
52300;SDS011;38528;53.214;6.562;2022-07-22T12:41:49;3.60;;;0.85;;
52300;SDS011;38528;53.214;6.562;2022-07-22T12:44:23;1.38;;;0.80;;
52300;SDS011;38528;53.214;6.562;2022-07-22T12:46:51;2.88;;;0.90;;
52300;SDS011;38528;53.214;6.562;2022-07-22T12:49:19;1.92;;;0.90;;
52300;SDS011;38528;53.214;6.562;2022-07-22T12:52:09;2.40;;;1.10;;
52300;SDS011;38528;53.214;6.562;2022-07-22T12:54:37;3.83;;;0.90;;
52300;SDS011;38528;53.214;6.562;2022-07-22T12:57:04;3.97;;;1.00;;
52300;SDS011;38528;53.214;6.562;2022-07-22T12:59:30;1.85;;;1.10;;
52300;SDS011;38528;53.214;6.562;2022-07-22T13:01:56;2.75;;;0.80;;
52300;SDS011;38528;53.214;6.562;2022-07-22T13:04:22;2.13;;;1.05;;
52300;SDS011;38528;53.214;6.562;2022-07-22T13:06:47;1.17;;;1.08;;
52300;SDS011;38528;53.214;6.562;2022-07-22T13:09:14;1.92;;;0.95;;
52300;SDS011;38528;53.214;6.562;2022-07-22T13:11:39;2.15;;;0.90;;
52300;SDS011;38528;53.214;6.562;2022-07-22T13:14:08;3.35;;;1.05;;
52300;SDS011;38528;53.214;6.562;2022-07-22T13:16:34;2.05;;;1.10;;
52300;SDS011;38528;53.214;6.562;2022-07-22T13:19:00;2.03;;;0.82;;
52300;SDS011;38528;53.214;6.562;2022-07-22T13:21:26;3.47;;;1.00;;
52300;SDS011;38528;53.214;6.562;2022-07-22T13:23:52;2.97;;;1.08;;
52300;SDS011;38528;53.214;6.562;2022-07-22T13:26:18;1.88;;;1.00;;
52300;SDS011;38528;53.214;6.562;2022-07-22T13:28:43;3.53;;;1.40;;
52300;SDS011;38528;53.214;6.562;2022-07-22T13:31:09;4.30;;;1.30;;
52300;SDS011;38528;53.214;6.562;2022-07-22T13:33:35;4.75;;;1.55;;
52300;SDS011;38528;53.214;6.562;2022-07-22T13:36:01;2.88;;;1.30;;
52300;SDS011;38528;53.214;6.562;2022-07-22T13:38:27;7.93;;;1.52;;
52300;SDS011;38528;53.214;6.562;2022-07-22T13:40:52;4.57;;;1.30;;
52300;SDS011;38528;53.214;6.562;2022-07-22T13:43:19;6.45;;;1.40;;
52300;SDS011;38528;53.214;6.562;2022-07-22T13:45:46;4.90;;;1.48;;
52300;SDS011;38528;53.214;6.562;2022-07-22T13:48:12;2.58;;;1.00;;
52300;SDS011;38528;53.214;6.562;2022-07-22T13:50:37;3.90;;;1.50;;
52300;SDS011;38528;53.214;6.562;2022-07-22T13:53:03;4.28;;;1.40;;
52300;SDS011;38528;53.214;6.562;2022-07-22T13:55:28;3.65;;;1.38;;
52300;SDS011;38528;53.214;6.562;2022-07-22T13:57:55;4.68;;;1.40;;
52300;SDS011;38528;53.214;6.562;2022-07-22T14:00:22;6.00;;;1.40;;
52300;SDS011;38528;53.214;6.562;2022-07-22T14:02:51;5.45;;;1.52;;
52300;SDS011;38528;53.214;6.562;2022-07-22T14:05:17;3.95;;;1.50;;
52300;SDS011;38528;53.214;6.562;2022-07-22T14:07:43;4.63;;;1.40;;
52300;SDS011;38528;53.214;6.562;2022-07-22T14:10:09;4.15;;;1.30;;
52300;SDS011;38528;53.214;6.562;2022-07-22T14:12:35;2.17;;;1.10;;
52300;SDS011;38528;53.214;6.562;2022-07-22T14:15:01;5.20;;;1.27;;
52300;SDS011;38528;53.214;6.562;2022-07-22T14:17:28;4.85;;;1.40;;
52300;SDS011;38528;53.214;6.562;2022-07-22T14:19:53;3.35;;;1.30;;
52300;SDS011;38528;53.214;6.562;2022-07-22T14:22:19;3.78;;;1.30;;
52300;SDS011;38528;53.214;6.562;2022-07-22T14:24:45;4.82;;;1.45;;
52300;SDS011;38528;53.214;6.562;2022-07-22T14:27:11;4.82;;;1.42;;
52300;SDS011;38528;53.214;6.562;2022-07-22T14:29:36;5.47;;;1.52;;
52300;SDS011;38528;53.214;6.562;2022-07-22T14:32:02;4.13;;;1.27;;
52300;SDS011;38528;53.214;6.562;2022-07-22T14:34:28;4.63;;;1.40;;
52300;SDS011;38528;53.214;6.562;2022-07-22T14:36:54;4.72;;;1.40;;
52300;SDS011;38528;53.214;6.562;2022-07-22T14:39:19;5.00;;;1.30;;
52300;SDS011;38528;53.214;6.562;2022-07-22T14:41:45;6.32;;;1.70;;
52300;SDS011;38528;53.214;6.562;2022-07-22T14:44:11;4.88;;;2.10;;
52300;SDS011;38528;53.214;6.562;2022-07-22T14:46:38;4.68;;;1.85;;
52300;SDS011;38528;53.214;6.562;2022-07-22T14:49:03;6.68;;;1.80;;
52300;SDS011;38528;53.214;6.562;2022-07-22T14:51:29;3.78;;;1.30;;
52300;SDS011;38528;53.214;6.562;2022-07-22T14:53:55;2.90;;;1.17;;
52300;SDS011;38528;53.214;6.562;2022-07-22T14:56:20;2.25;;;1.20;;
52300;SDS011;38528;53.214;6.562;2022-07-22T14:58:46;4.55;;;1.60;;
52300;SDS011;38528;53.214;6.562;2022-07-22T15:01:11;4.05;;;1.30;;
52300;SDS011;38528;53.214;6.562;2022-07-22T15:03:37;6.60;;;1.55;;
52300;SDS011;38528;53.214;6.562;2022-07-22T15:06:03;5.22;;;1.60;;
52300;SDS011;38528;53.214;6.562;2022-07-22T15:08:29;2.08;;;1.30;;
52300;SDS011;38528;53.214;6.562;2022-07-22T15:10:55;3.83;;;1.58;;